Time;durP1;ratioP1;P1;durP2;ratioP2;P2;SDS_P1;SDS_P2;PMS_P1;PMS_P2;Temp;Humidity;BMP_temperature;BMP_pressure;BME280_temperature;BME280_humidity;BME280_pressure;Samples;Min_cycle;Max_cycle;Signal;HPM_P1;HPM_P2
2023/09/01 00:01:03;;;;;;;8.70;4.20;;;;;;;;;;5041814;28;20484;-80
2023/09/01 00:03:29;;;;;;;7.10;4.20;;;;;;;;;;5055902;28;20533;-79
2023/09/01 00:05:58;;;;;;;7.73;4.50;;;;;;;;;;5061213;28;20457;-80
2023/09/01 00:08:25;;;;;;;7.03;4.07;;;;;;;;;;5048281;28;20519;-80
2023/09/01 00:10:51;;;;;;;6.07;3.87;;;;;;;;;;5045597;28;20498;-79
2023/09/01 00:13:17;;;;;;;8.33;4.23;;;;;;;;;;5057052;28;20438;-79
2023/09/01 00:15:43;;;;;;;7.33;3.60;;;;;;;;;;5053468;28;20792;-80
2023/09/01 00:18:11;;;;;;;5.47;3.53;;;;;;;;;;5052825;28;20539;-80
2023/09/01 00:20:37;;;;;;;7.10;4.20;;;;;;;;;;5044283;28;20220;-79
2023/09/01 00:23:04;;;;;;;7.80;4.30;;;;;;;;;;5050004;28;20443;-80
2023/09/01 00:25:30;;;;;;;12.27;4.77;;;;;;;;;;5048096;28;20497;-80
2023/09/01 00:27:56;;;;;;;7.10;3.70;;;;;;;;;;5056275;28;20450;-80
2023/09/01 00:30:23;;;;;;;7.17;3.17;;;;;;;;;;5048305;28;20467;-80
2023/09/01 00:32:51;;;;;;;8.17;3.90;;;;;;;;;;5050287;28;20441;-80
2023/09/01 00:35:19;;;;;;;7.70;4.10;;;;;;;;;;5056588;28;20864;-80
2023/09/01 00:37:45;;;;;;;6.40;4.43;;;;;;;;;;5046565;28;20492;-80
2023/09/01 00:40:12;;;;;;;10.40;3.97;;;;;;;;;;5055137;28;20458;-80
2023/09/01 00:42:39;;;;;;;5.70;3.60;;;;;;;;;;5048355;28;20442;-79
2023/09/01 00:45:05;;;;;;;10.77;4.80;;;;;;;;;;5040403;28;20998;-80
2023/09/01 00:47:32;;;;;;;6.40;4.30;;;;;;;;;;5040626;28;20830;-80
2023/09/01 00:49:58;;;;;;;5.67;3.47;;;;;;;;;;5043720;28;21152;-80
2023/09/01 00:52:28;;;;;;;6.13;3.93;;;;;;;;;;5049236;28;20529;-80
2023/09/01 00:54:55;;;;;;;9.57;5.47;;;;;;;;;;5058736;28;20533;-80
2023/09/01 00:57:21;;;;;;;4.70;4.20;;;;;;;;;;5045510;28;20449;-80
2023/09/01 00:59:49;;;;;;;6.50;4.17;;;;;;;;;;5059369;28;20491;-80
2023/09/01 01:02:17;;;;;;;5.33;3.50;;;;;;;;;;5070300;28;21008;-80
2023/09/01 01:04:44;;;;;;;5.90;3.47;;;;;;;;;;5055004;28;20439;-80
2023/09/01 01:07:15;;;;;;;5.13;3.37;;;;;;;;;;5037306;28;20989;-80
2023/09/01 01:09:50;;;;;;;5.20;3.03;;;;;;;;;;5046770;28;20508;-80
2023/09/01 01:12:21;;;;;;;5.80;4.10;;;;;;;;;;5057320;28;20479;-80
2023/09/01 01:14:48;;;;;;;4.00;3.47;;;;;;;;;;5045322;28;20492;-79
2023/09/01 01:17:18;;;;;;;6.60;3.87;;;;;;;;;;5056513;28;20991;-80
2023/09/01 01:19:50;;;;;;;5.70;4.20;;;;;;;;;;5064052;28;20463;-80
2023/09/01 01:22:20;;;;;;;9.47;4.30;;;;;;;;;;5055607;28;20477;-79
2023/09/01 01:24:48;;;;;;;4.53;3.40;;;;;;;;;;5060405;28;20471;-80
2023/09/01 01:27:18;;;;;;;13.10;3.80;;;;;;;;;;5058243;28;21039;-80
2023/09/01 01:29:44;;;;;;;7.63;3.57;;;;;;;;;;5051307;28;20527;-80
2023/09/01 01:32:10;;;;;;;4.93;3.80;;;;;;;;;;5045936;28;20447;-80
2023/09/01 01:34:37;;;;;;;6.40;3.70;;;;;;;;;;5058807;28;20441;-80
2023/09/01 01:37:09;;;;;;;6.70;3.60;;;;;;;;;;5028053;28;20484;-80
2023/09/01 01:39:36;;;;;;;12.40;5.67;;;;;;;;;;5056831;28;20478;-80
2023/09/01 01:42:07;;;;;;;5.80;3.63;;;;;;;;;;5051138;28;20478;-80
2023/09/01 01:44:37;;;;;;;7.03;3.47;;;;;;;;;;5056268;28;20498;-80
2023/09/01 01:47:05;;;;;;;6.23;4.13;;;;;;;;;;5021948;28;20476;-80
2023/09/01 01:49:31;;;;;;;7.00;3.67;;;;;;;;;;5044062;28;20500;-79
2023/09/01 01:51:58;;;;;;;16.37;5.67;;;;;;;;;;5041872;28;20510;-80
2023/09/01 01:54:24;;;;;;;5.70;3.60;;;;;;;;;;5058211;28;20478;-80
2023/09/01 01:56:52;;;;;;;8.10;4.07;;;;;;;;;;5059470;28;20478;-80
2023/09/01 01:59:20;;;;;;;10.40;4.63;;;;;;;;;;5047789;28;20569;-80
2023/09/01 02:01:47;;;;;;;13.87;4.60;;;;;;;;;;5045247;28;20474;-80
2023/09/01 02:04:13;;;;;;;10.33;6.10;;;;;;;;;;5044897;28;20493;-80
2023/09/01 02:06:40;;;;;;;5.50;4.30;;;;;;;;;;5048097;28;20550;-80
2023/09/01 02:09:09;;;;;;;11.77;4.40;;;;;;;;;;5043156;28;20521;-79
2023/09/01 02:11:36;;;;;;;5.53;3.60;;;;;;;;;;5032177;28;20475;-80
2023/09/01 02:14:03;;;;;;;8.43;5.13;;;;;;;;;;5052594;28;20530;-79
2023/09/01 02:16:30;;;;;;;8.70;4.50;;;;;;;;;;5042051;28;20453;-80
2023/09/01 02:18:57;;;;;;;7.83;4.30;;;;;;;;;;5038072;28;20817;-80
2023/09/01 02:21:25;;;;;;;6.90;4.00;;;;;;;;;;5048699;28;20452;-80
2023/09/01 02:23:51;;;;;;;7.97;3.77;;;;;;;;;;5040558;28;20987;-80
2023/09/01 02:26:18;;;;;;;8.07;4.53;;;;;;;;;;5049695;28;21021;-79
2023/09/01 02:28:44;;;;;;;8.13;4.40;;;;;;;;;;5052536;28;20989;-79
2023/09/01 02:31:11;;;;;;;6.83;4.27;;;;;;;;;;5047693;28;20485;-83
2023/09/01 02:33:39;;;;;;;8.77;4.60;;;;;;;;;;5050189;28;20479;-81
2023/09/01 02:36:25;;;;;;;6.47;3.83;;;;;;;;;;5059701;28;20483;-80
2023/09/01 02:38:52;;;;;;;8.10;5.30;;;;;;;;;;5058909;28;20480;-80
2023/09/01 02:41:18;;;;;;;4.70;3.73;;;;;;;;;;5061746;28;20458;-81
2023/09/01 02:43:45;;;;;;;6.20;4.60;;;;;;;;;;5052796;28;20842;-80
2023/09/01 02:46:11;;;;;;;5.30;3.47;;;;;;;;;;5047373;28;20852;-80
2023/09/01 02:48:39;;;;;;;7.27;4.30;;;;;;;;;;5057668;28;20483;-81
2023/09/01 02:51:06;;;;;;;5.30;4.43;;;;;;;;;;5049768;28;20475;-81
2023/09/01 02:53:32;;;;;;;6.40;5.00;;;;;;;;;;5043910;28;20494;-80
2023/09/01 02:55:58;;;;;;;7.20;4.93;;;;;;;;;;5052509;28;20991;-80
2023/09/01 02:58:25;;;;;;;4.77;4.10;;;;;;;;;;5052167;28;20491;-80
2023/09/01 03:00:51;;;;;;;11.43;5.17;;;;;;;;;;5044701;28;20490;-80
2023/09/01 03:03:19;;;;;;;6.23;4.10;;;;;;;;;;5053481;28;20464;-81
2023/09/01 03:05:48;;;;;;;5.20;4.00;;;;;;;;;;5046497;28;20520;-81
2023/09/01 03:08:14;;;;;;;6.07;3.90;;;;;;;;;;5051532;28;20467;-79
2023/09/01 03:10:41;;;;;;;4.53;4.07;;;;;;;;;;5059794;28;20489;-80
2023/09/01 03:13:07;;;;;;;4.70;3.77;;;;;;;;;;5040891;28;20472;-80
2023/09/01 03:15:33;;;;;;;4.60;4.20;;;;;;;;;;5053866;28;20853;-80
2023/09/01 03:18:00;;;;;;;7.70;4.37;;;;;;;;;;5051159;28;20472;-80
2023/09/01 03:20:28;;;;;;;7.77;4.10;;;;;;;;;;5047811;28;20482;-80
2023/09/01 03:22:55;;;;;;;6.83;4.70;;;;;;;;;;5053021;28;20552;-81
2023/09/01 03:25:22;;;;;;;6.10;4.30;;;;;;;;;;5040292;28;21062;-80
2023/09/01 03:27:48;;;;;;;6.20;4.20;;;;;;;;;;5051575;28;20446;-80
2023/09/01 03:30:15;;;;;;;6.77;3.60;;;;;;;;;;5049759;28;20491;-80
2023/09/01 03:32:42;;;;;;;8.80;4.57;;;;;;;;;;5052275;28;20889;-80
2023/09/01 03:35:09;;;;;;;5.60;4.47;;;;;;;;;;5060564;28;20943;-80
2023/09/01 03:37:35;;;;;;;6.57;4.17;;;;;;;;;;5049649;28;20474;-80
2023/09/01 03:40:07;;;;;;;12.03;4.47;;;;;;;;;;5046416;28;20538;-80
2023/09/01 03:42:34;;;;;;;7.93;4.50;;;;;;;;;;5053345;28;20844;-80
2023/09/01 03:45:00;;;;;;;5.50;3.80;;;;;;;;;;5050946;28;20476;-80
2023/09/01 03:47:28;;;;;;;7.20;4.30;;;;;;;;;;5051581;28;20475;-80
2023/09/01 03:49:54;;;;;;;9.93;4.83;;;;;;;;;;5053083;28;21005;-80
2023/09/01 03:52:22;;;;;;;5.00;4.00;;;;;;;;;;5053829;28;20845;-80
2023/09/01 03:54:50;;;;;;;11.33;3.80;;;;;;;;;;5056339;28;21001;-80
2023/09/01 03:57:18;;;;;;;8.00;4.40;;;;;;;;;;5050710;28;20454;-80
2023/09/01 03:59:44;;;;;;;5.70;3.80;;;;;;;;;;5054649;28;20460;-80
2023/09/01 04:02:11;;;;;;;4.10;3.00;;;;;;;;;;5042820;28;20472;-80
2023/09/01 04:04:37;;;;;;;6.03;3.37;;;;;;;;;;5050371;28;20488;-80
2023/09/01 04:07:04;;;;;;;17.93;6.17;;;;;;;;;;5057660;28;20472;-80
2023/09/01 04:09:30;;;;;;;4.93;4.33;;;;;;;;;;5053718;28;20506;-80
2023/09/01 04:11:57;;;;;;;11.00;4.40;;;;;;;;;;5050068;28;20475;-81
2023/09/01 04:14:25;;;;;;;6.10;4.20;;;;;;;;;;5053626;28;21449;-80
2023/09/01 04:16:51;;;;;;;6.77;4.37;;;;;;;;;;5054032;28;20454;-80
2023/09/01 04:19:18;;;;;;;8.20;3.53;;;;;;;;;;5042525;28;20470;-80
2023/09/01 04:21:44;;;;;;;8.30;4.73;;;;;;;;;;5045397;28;20430;-80
2023/09/01 04:24:11;;;;;;;6.83;4.40;;;;;;;;;;5047378;28;20462;-80
2023/09/01 04:26:37;;;;;;;9.97;4.70;;;;;;;;;;5066481;28;20546;-80
2023/09/01 04:29:04;;;;;;;5.83;3.97;;;;;;;;;;5058416;28;20509;-80
2023/09/01 04:31:32;;;;;;;8.10;4.37;;;;;;;;;;5056949;28;20467;-80
2023/09/01 04:33:59;;;;;;;5.90;4.00;;;;;;;;;;5048443;28;20500;-80
2023/09/01 04:36:27;;;;;;;6.50;3.80;;;;;;;;;;5049902;28;20475;-80
2023/09/01 04:38:54;;;;;;;5.57;4.20;;;;;;;;;;5056598;28;20478;-80
2023/09/01 04:41:20;;;;;;;6.83;4.57;;;;;;;;;;5060524;28;20467;-81
2023/09/01 04:43:47;;;;;;;7.00;4.57;;;;;;;;;;5057590;28;20471;-80
2023/09/01 04:46:13;;;;;;;6.87;5.07;;;;;;;;;;5054443;28;20492;-80
2023/09/01 04:48:41;;;;;;;5.80;5.13;;;;;;;;;;5047716;28;20979;-80
2023/09/01 04:51:08;;;;;;;7.00;5.60;;;;;;;;;;5048471;28;20497;-81
2023/09/01 04:53:34;;;;;;;6.93;5.40;;;;;;;;;;5059868;28;20479;-80
2023/09/01 04:56:00;;;;;;;9.40;6.23;;;;;;;;;;5052821;28;20494;-81
2023/09/01 04:58:27;;;;;;;6.87;6.00;;;;;;;;;;5045271;28;20490;-80
2023/09/01 05:00:54;;;;;;;9.10;5.67;;;;;;;;;;5053744;28;20501;-80
2023/09/01 05:03:20;;;;;;;10.87;5.60;;;;;;;;;;5046009;28;20486;-80
2023/09/01 05:05:49;;;;;;;10.90;5.30;;;;;;;;;;5057411;28;20477;-80
2023/09/01 05:08:15;;;;;;;8.17;5.63;;;;;;;;;;5049285;28;21015;-80
2023/09/01 05:10:42;;;;;;;7.33;5.43;;;;;;;;;;5057375;28;20498;-80
2023/09/01 05:13:08;;;;;;;9.33;5.03;;;;;;;;;;5049376;28;20466;-80
2023/09/01 05:15:35;;;;;;;8.00;5.47;;;;;;;;;;5051603;28;20476;-80
2023/09/01 05:18:02;;;;;;;7.67;5.70;;;;;;;;;;5051630;28;21003;-80
2023/09/01 05:20:30;;;;;;;9.03;6.07;;;;;;;;;;5054525;28;20977;-79
2023/09/01 05:22:58;;;;;;;8.80;5.90;;;;;;;;;;5057917;28;20476;-80
2023/09/01 05:25:25;;;;;;;9.60;6.50;;;;;;;;;;5058145;28;20479;-80
2023/09/01 05:27:51;;;;;;;9.73;7.03;;;;;;;;;;5043216;28;20466;-80
2023/09/01 05:30:17;;;;;;;9.40;6.00;;;;;;;;;;5055076;28;21002;-79
2023/09/01 05:32:44;;;;;;;6.67;5.70;;;;;;;;;;5056760;28;20478;-80
2023/09/01 05:35:10;;;;;;;10.77;5.50;;;;;;;;;;5057660;28;20492;-80
2023/09/01 05:37:36;;;;;;;6.50;5.90;;;;;;;;;;5042658;28;20471;-80
2023/09/01 05:40:05;;;;;;;6.40;5.00;;;;;;;;;;5039739;28;20449;-79
2023/09/01 05:42:32;;;;;;;6.40;5.20;;;;;;;;;;5056736;28;20459;-79
2023/09/01 05:44:58;;;;;;;6.37;5.77;;;;;;;;;;5051637;28;20522;-79
2023/09/01 05:47:25;;;;;;;7.53;6.73;;;;;;;;;;5053149;28;20475;-79
2023/09/01 05:49:51;;;;;;;7.27;5.67;;;;;;;;;;5066808;28;20493;-79
2023/09/01 05:52:17;;;;;;;7.27;6.17;;;;;;;;;;5042739;28;20479;-79
2023/09/01 05:54:44;;;;;;;8.27;6.60;;;;;;;;;;5048099;28;20479;-79
2023/09/01 05:57:12;;;;;;;7.23;5.90;;;;;;;;;;5043454;28;20475;-79
2023/09/01 05:59:38;;;;;;;8.43;6.30;;;;;;;;;;5062464;28;20979;-79
2023/09/01 06:02:05;;;;;;;8.33;6.67;;;;;;;;;;5058151;28;20476;-79
2023/09/01 06:04:32;;;;;;;17.13;6.10;;;;;;;;;;5064690;28;20478;-79
2023/09/01 06:06:58;;;;;;;9.87;6.47;;;;;;;;;;5056638;28;21035;-79
2023/09/01 06:09:24;;;;;;;11.40;7.00;;;;;;;;;;5048690;28;20493;-79
2023/09/01 06:11:51;;;;;;;7.17;5.83;;;;;;;;;;5048966;28;20459;-79
2023/09/01 06:14:19;;;;;;;11.53;6.80;;;;;;;;;;5052190;28;20493;-79
2023/09/01 06:16:47;;;;;;;9.23;6.47;;;;;;;;;;5048106;28;20549;-79
2023/09/01 06:19:13;;;;;;;10.33;8.00;;;;;;;;;;5051609;28;20471;-80
2023/09/01 06:21:39;;;;;;;9.00;7.70;;;;;;;;;;5048667;28;20462;-79
2023/09/01 06:24:06;;;;;;;9.13;8.13;;;;;;;;;;5050316;28;20486;-79
2023/09/01 06:26:32;;;;;;;10.67;8.20;;;;;;;;;;5057274;28;20733;-79
2023/09/01 06:28:58;;;;;;;17.50;9.00;;;;;;;;;;5049536;28;20491;-79
2023/09/01 06:31:26;;;;;;;11.07;8.00;;;;;;;;;;5050248;28;20470;-78
2023/09/01 06:33:53;;;;;;;11.07;8.80;;;;;;;;;;5046182;28;20484;-78
2023/09/01 06:36:19;;;;;;;14.80;9.63;;;;;;;;;;5054635;28;20467;-78
2023/09/01 06:38:45;;;;;;;12.27;9.27;;;;;;;;;;5049398;28;20483;-78
2023/09/01 06:41:13;;;;;;;11.53;9.53;;;;;;;;;;5037025;28;20487;-78
2023/09/01 06:43:40;;;;;;;14.47;10.07;;;;;;;;;;5054552;28;20490;-78
2023/09/01 06:46:07;;;;;;;14.10;9.17;;;;;;;;;;5054264;28;20468;-79
2023/09/01 06:48:35;;;;;;;11.60;9.20;;;;;;;;;;5059044;28;20483;-79
2023/09/01 06:51:03;;;;;;;9.13;8.13;;;;;;;;;;5045281;28;20499;-79
2023/09/01 06:53:30;;;;;;;13.57;9.07;;;;;;;;;;5048643;28;20845;-79
2023/09/01 06:55:56;;;;;;;10.70;7.70;;;;;;;;;;5058088;28;20500;-80
2023/09/01 06:58:22;;;;;;;14.90;9.10;;;;;;;;;;5059342;28;20974;-79
2023/09/01 07:00:51;;;;;;;15.70;9.27;;;;;;;;;;5051836;28;20488;-79
2023/09/01 07:03:17;;;;;;;12.50;8.80;;;;;;;;;;5053990;28;20471;-78
2023/09/01 07:05:52;;;;;;;15.37;8.13;;;;;;;;;;5051230;28;20486;-79
2023/09/01 07:08:19;;;;;;;9.83;7.80;;;;;;;;;;5058166;28;20460;-79
2023/09/01 07:10:46;;;;;;;9.17;7.33;;;;;;;;;;5034396;28;20492;-79
2023/09/01 07:13:12;;;;;;;10.07;6.20;;;;;;;;;;5054290;28;20463;-80
2023/09/01 07:15:39;;;;;;;10.00;6.90;;;;;;;;;;5049163;28;20471;-79
2023/09/01 07:18:05;;;;;;;8.63;7.63;;;;;;;;;;5046491;28;20460;-79
2023/09/01 07:20:31;;;;;;;16.27;8.00;;;;;;;;;;5046508;28;20461;-79
2023/09/01 07:22:59;;;;;;;9.90;6.20;;;;;;;;;;5055502;28;20446;-79
2023/09/01 07:25:25;;;;;;;9.43;6.73;;;;;;;;;;5045305;28;20474;-79
2023/09/01 07:27:52;;;;;;;10.40;7.67;;;;;;;;;;5052353;28;20479;-80
2023/09/01 07:30:18;;;;;;;10.47;7.40;;;;;;;;;;5047079;28;20488;-77
2023/09/01 07:32:45;;;;;;;11.50;7.60;;;;;;;;;;5044131;28;20480;-78
2023/09/01 07:35:11;;;;;;;15.33;8.10;;;;;;;;;;5060228;28;20486;-81
2023/09/01 07:37:38;;;;;;;14.27;7.53;;;;;;;;;;5057521;28;20491;-78
2023/09/01 07:40:07;;;;;;;14.67;7.20;;;;;;;;;;5050330;28;20457;-79
2023/09/01 07:42:35;;;;;;;13.50;7.43;;;;;;;;;;5043750;28;20542;-79
2023/09/01 07:45:02;;;;;;;10.40;6.90;;;;;;;;;;5039486;28;20494;-79
2023/09/01 07:47:29;;;;;;;10.30;6.43;;;;;;;;;;5045046;28;20450;-79
2023/09/01 07:49:55;;;;;;;11.90;6.40;;;;;;;;;;5044254;28;20511;-79
2023/09/01 07:52:21;;;;;;;9.30;6.53;;;;;;;;;;5049354;28;20475;-79
2023/09/01 07:54:48;;;;;;;10.97;6.50;;;;;;;;;;5045214;28;20479;-79
2023/09/01 07:57:15;;;;;;;10.87;6.90;;;;;;;;;;5051237;28;20486;-79
2023/09/01 07:59:42;;;;;;;9.33;5.27;;;;;;;;;;5045717;28;20478;-79
2023/09/01 08:02:09;;;;;;;10.00;5.63;;;;;;;;;;5043667;28;20480;-79
2023/09/01 08:04:35;;;;;;;8.80;5.57;;;;;;;;;;5053467;28;20473;-79
2023/09/01 08:07:01;;;;;;;7.73;5.73;;;;;;;;;;5052239;28;20480;-79
2023/09/01 08:09:28;;;;;;;6.43;4.57;;;;;;;;;;5050879;28;21019;-79
2023/09/01 08:11:54;;;;;;;6.83;5.40;;;;;;;;;;5057271;28;20467;-79
2023/09/01 08:14:22;;;;;;;11.73;4.83;;;;;;;;;;5054162;28;20520;-79
2023/09/01 08:16:49;;;;;;;7.20;4.20;;;;;;;;;;5047860;28;20508;-79
2023/09/01 08:19:15;;;;;;;7.17;4.67;;;;;;;;;;5064592;28;20475;-79
2023/09/01 08:21:42;;;;;;;7.87;4.60;;;;;;;;;;5054612;28;20545;-79
2023/09/01 08:24:08;;;;;;;4.67;3.90;;;;;;;;;;5043917;28;20479;-80
2023/09/01 08:26:34;;;;;;;7.23;3.60;;;;;;;;;;5044028;28;20486;-79
2023/09/01 08:29:04;;;;;;;8.13;3.93;;;;;;;;;;5056131;28;20478;-79
2023/09/01 08:31:32;;;;;;;8.77;3.63;;;;;;;;;;5056417;28;20544;-79
2023/09/01 08:33:58;;;;;;;5.77;3.80;;;;;;;;;;5048750;28;20479;-79
2023/09/01 08:36:26;;;;;;;5.53;2.90;;;;;;;;;;5065922;28;20487;-79
2023/09/01 08:38:52;;;;;;;4.30;2.60;;;;;;;;;;5045459;28;20564;-80
2023/09/01 08:41:19;;;;;;;4.37;2.87;;;;;;;;;;5057661;28;20468;-79
2023/09/01 08:43:47;;;;;;;4.33;3.27;;;;;;;;;;5045642;28;20480;-81
2023/09/01 08:46:16;;;;;;;4.80;3.63;;;;;;;;;;5059477;28;20491;-80
2023/09/01 08:48:45;;;;;;;2.90;2.60;;;;;;;;;;5038709;28;20482;-80
2023/09/01 08:51:14;;;;;;;6.03;2.83;;;;;;;;;;5052190;28;20493;-79
2023/09/01 08:53:41;;;;;;;11.20;3.47;;;;;;;;;;5044190;28;20566;-80
2023/09/01 08:56:08;;;;;;;8.10;3.43;;;;;;;;;;5049062;28;20845;-79
2023/09/01 08:58:36;;;;;;;3.13;2.80;;;;;;;;;;5054587;28;20471;-79
2023/09/01 09:01:03;;;;;;;3.13;2.83;;;;;;;;;;5043106;28;20559;-79
2023/09/01 09:03:29;;;;;;;8.87;3.30;;;;;;;;;;5048981;28;20488;-79
2023/09/01 09:05:57;;;;;;;8.60;3.70;;;;;;;;;;5053613;28;20498;-79
2023/09/01 09:08:23;;;;;;;5.90;3.60;;;;;;;;;;5055143;28;20489;-79
2023/09/01 09:10:50;;;;;;;3.23;2.47;;;;;;;;;;5055839;28;20846;-79
2023/09/01 09:13:23;;;;;;;5.43;2.70;;;;;;;;;;5049533;28;20487;-79
2023/09/01 09:16:08;;;;;;;8.40;3.67;;;;;;;;;;5059192;28;20461;-79
2023/09/01 09:18:34;;;;;;;4.07;2.23;;;;;;;;;;5050012;28;20604;-79
2023/09/01 09:21:03;;;;;;;6.80;3.00;;;;;;;;;;5046274;28;20473;-79
2023/09/01 09:23:41;;;;;;;4.17;2.27;;;;;;;;;;5060570;28;20499;-79
2023/09/01 09:26:08;;;;;;;6.67;1.90;;;;;;;;;;5058666;28;20540;-79
2023/09/01 09:28:34;;;;;;;5.37;3.27;;;;;;;;;;5055682;28;20483;-79
2023/09/01 09:31:02;;;;;;;4.03;2.73;;;;;;;;;;5043212;28;21024;-79
2023/09/01 09:33:29;;;;;;;2.70;2.00;;;;;;;;;;5056093;28;20511;-79
2023/09/01 09:35:56;;;;;;;5.77;2.33;;;;;;;;;;5026807;28;20479;-79
2023/09/01 09:38:24;;;;;;;2.97;1.67;;;;;;;;;;5051880;28;20472;-79
2023/09/01 09:40:56;;;;;;;4.70;1.60;;;;;;;;;;5052084;28;20486;-79
2023/09/01 09:43:23;;;;;;;2.43;1.80;;;;;;;;;;5046708;28;20529;-79
2023/09/01 09:45:52;;;;;;;4.60;1.93;;;;;;;;;;5029664;28;20469;-79
2023/09/01 09:48:18;;;;;;;3.30;2.33;;;;;;;;;;5062829;28;20861;-79
2023/09/01 09:50:47;;;;;;;4.43;2.47;;;;;;;;;;5041103;28;20476;-79
2023/09/01 09:53:14;;;;;;;6.50;2.43;;;;;;;;;;5050260;28;20488;-79
2023/09/01 09:55:44;;;;;;;2.00;1.30;;;;;;;;;;5050641;28;20527;-79
2023/09/01 09:58:10;;;;;;;4.93;1.60;;;;;;;;;;5051928;28;20487;-79
2023/09/01 10:00:40;;;;;;;3.67;2.00;;;;;;;;;;5049725;28;20468;-80
2023/09/01 10:03:07;;;;;;;2.10;1.43;;;;;;;;;;5057796;28;20521;-79
2023/09/01 10:05:35;;;;;;;3.20;2.00;;;;;;;;;;5032206;28;20475;-80
2023/09/01 10:08:03;;;;;;;3.37;2.23;;;;;;;;;;5049394;28;20845;-79
2023/09/01 10:10:31;;;;;;;2.30;1.50;;;;;;;;;;5049445;28;20565;-80
2023/09/01 10:12:58;;;;;;;2.60;1.70;;;;;;;;;;5042091;28;20473;-80
2023/09/01 10:15:25;;;;;;;3.03;1.60;;;;;;;;;;5052721;28;20488;-80
2023/09/01 10:17:53;;;;;;;2.70;1.40;;;;;;;;;;5058755;28;20478;-80
2023/09/01 10:20:19;;;;;;;3.70;1.60;;;;;;;;;;5047098;28;20464;-80
2023/09/01 10:22:46;;;;;;;3.90;1.80;;;;;;;;;;5044369;28;20493;-80
2023/09/01 10:25:15;;;;;;;3.53;1.70;;;;;;;;;;5046515;28;20482;-80
2023/09/01 10:27:56;;;;;;;2.00;1.80;;;;;;;;;;5061356;28;20527;-80
2023/09/01 10:30:27;;;;;;;4.40;2.07;;;;;;;;;;5061212;28;20462;-79
2023/09/01 10:33:04;;;;;;;2.20;1.67;;;;;;;;;;5049376;28;20485;-80
2023/09/01 10:35:41;;;;;;;5.00;1.67;;;;;;;;;;5035710;28;21491;-80
2023/09/01 10:38:13;;;;;;;4.70;2.07;;;;;;;;;;5046985;28;20985;-80
2023/09/01 10:40:40;;;;;;;3.97;2.20;;;;;;;;;;5052358;28;20488;-80
2023/09/01 10:43:07;;;;;;;3.17;2.17;;;;;;;;;;5059245;28;20503;-80
2023/09/01 10:45:34;;;;;;;3.00;1.90;;;;;;;;;;5058614;28;20479;-80
2023/09/01 10:48:01;;;;;;;2.23;2.00;;;;;;;;;;5055528;28;20849;-81
2023/09/01 10:50:27;;;;;;;5.10;2.10;;;;;;;;;;5042852;28;20528;-80
2023/09/01 10:53:12;;;;;;;4.50;3.03;;;;;;;;;;5062221;28;20466;-80
2023/09/01 10:55:53;;;;;;;4.20;2.67;;;;;;;;;;5053701;28;20852;-80
2023/09/01 10:58:21;;;;;;;2.63;2.00;;;;;;;;;;5041091;28;20473;-80
2023/09/01 11:00:51;;;;;;;4.50;2.97;;;;;;;;;;5046850;28;20490;-80
2023/09/01 11:03:27;;;;;;;4.03;2.43;;;;;;;;;;5044759;28;21393;-80
2023/09/01 11:05:55;;;;;;;4.20;2.10;;;;;;;;;;5036757;28;20489;-80
2023/09/01 11:08:21;;;;;;;6.93;3.60;;;;;;;;;;5049239;28;20486;-80
2023/09/01 11:10:48;;;;;;;3.33;2.20;;;;;;;;;;5049460;28;20479;-80
2023/09/01 11:13:17;;;;;;;4.83;2.73;;;;;;;;;;5051668;28;20483;-80
2023/09/01 11:15:44;;;;;;;7.53;2.90;;;;;;;;;;5057195;28;20550;-80
2023/09/01 11:18:17;;;;;;;4.37;2.20;;;;;;;;;;5057500;28;21007;-80
2023/09/01 11:20:44;;;;;;;7.90;2.50;;;;;;;;;;5052512;28;20502;-80
2023/09/01 11:23:10;;;;;;;2.10;2.00;;;;;;;;;;5050030;28;20489;-80
2023/09/01 11:25:36;;;;;;;2.93;2.60;;;;;;;;;;5043536;28;21025;-80
2023/09/01 11:28:03;;;;;;;5.83;2.90;;;;;;;;;;5052005;28;20975;-80
2023/09/01 11:30:30;;;;;;;5.23;2.90;;;;;;;;;;5050925;28;20472;-80
2023/09/01 11:32:56;;;;;;;8.60;2.90;;;;;;;;;;5064610;28;20455;-81
2023/09/01 11:35:28;;;;;;;4.47;2.53;;;;;;;;;;5056289;28;21017;-80
2023/09/01 11:37:54;;;;;;;4.03;2.60;;;;;;;;;;5052575;28;20479;-80
2023/09/01 11:40:22;;;;;;;5.40;2.90;;;;;;;;;;5058578;28;20828;-80
2023/09/01 11:42:48;;;;;;;5.53;2.73;;;;;;;;;;5035219;28;20479;-80
2023/09/01 11:45:15;;;;;;;6.77;2.80;;;;;;;;;;5038268;28;20890;-80
2023/09/01 11:47:41;;;;;;;7.00;2.70;;;;;;;;;;5056467;28;20486;-80
2023/09/01 11:50:13;;;;;;;5.20;2.90;;;;;;;;;;5046645;28;20455;-80
2023/09/01 11:52:51;;;;;;;7.33;2.63;;;;;;;;;;5033680;28;20494;-80
2023/09/01 11:55:28;;;;;;;4.37;3.20;;;;;;;;;;5049745;28;20472;-80
2023/09/01 11:57:58;;;;;;;7.40;3.10;;;;;;;;;;5034705;28;20492;-80
2023/09/01 12:00:31;;;;;;;2.70;2.50;;;;;;;;;;5056869;28;20472;-81
2023/09/01 12:02:58;;;;;;;3.93;2.43;;;;;;;;;;5039996;28;20467;-80
2023/09/01 12:05:29;;;;;;;5.77;3.10;;;;;;;;;;5052241;28;20467;-80
2023/09/01 12:07:58;;;;;;;3.57;2.30;;;;;;;;;;5052575;28;20482;-80
2023/09/01 12:10:25;;;;;;;4.53;2.63;;;;;;;;;;5055940;28;21008;-80
2023/09/01 12:13:01;;;;;;;5.30;2.67;;;;;;;;;;5049038;28;20870;-81
2023/09/01 12:15:27;;;;;;;4.37;2.00;;;;;;;;;;5054365;28;20480;-80
2023/09/01 12:17:54;;;;;;;5.40;2.53;;;;;;;;;;5033407;28;20478;-80
2023/09/01 12:20:20;;;;;;;5.53;3.00;;;;;;;;;;5051144;28;20480;-80
2023/09/01 12:22:47;;;;;;;3.90;2.90;;;;;;;;;;5050442;28;20469;-81
2023/09/01 12:25:15;;;;;;;5.03;3.03;;;;;;;;;;5047777;28;20478;-81
2023/09/01 12:27:42;;;;;;;4.80;2.90;;;;;;;;;;5050437;28;20486;-80
2023/09/01 12:30:10;;;;;;;6.37;2.90;;;;;;;;;;5050576;28;20503;-81
2023/09/01 12:32:37;;;;;;;4.37;2.83;;;;;;;;;;5051255;28;20491;-81
2023/09/01 12:35:03;;;;;;;5.67;3.00;;;;;;;;;;5059304;28;20486;-81
2023/09/01 12:37:30;;;;;;;5.83;2.97;;;;;;;;;;5043487;28;20467;-80
2023/09/01 12:39:56;;;;;;;5.23;4.00;;;;;;;;;;5046725;28;20471;-80
2023/09/01 12:42:24;;;;;;;9.73;3.40;;;;;;;;;;5061611;28;20476;-80
2023/09/01 12:44:50;;;;;;;5.00;3.60;;;;;;;;;;5049260;28;20480;-80
2023/09/01 12:47:17;;;;;;;5.57;3.10;;;;;;;;;;5045041;28;20486;-80
2023/09/01 12:49:45;;;;;;;4.63;2.70;;;;;;;;;;5046246;28;20467;-80
2023/09/01 12:52:11;;;;;;;4.00;2.47;;;;;;;;;;5067442;28;20520;-80
2023/09/01 12:54:37;;;;;;;3.50;2.60;;;;;;;;;;5051313;28;20479;-80
2023/09/01 12:57:06;;;;;;;4.80;2.33;;;;;;;;;;5040106;28;20467;-80
2023/09/01 12:59:34;;;;;;;3.77;2.70;;;;;;;;;;5065966;28;20545;-80
2023/09/01 13:02:01;;;;;;;5.60;3.30;;;;;;;;;;5052072;28;20868;-80
2023/09/01 13:04:31;;;;;;;4.13;2.60;;;;;;;;;;5054450;28;20894;-80
2023/09/01 13:06:58;;;;;;;4.00;2.83;;;;;;;;;;5051212;28;20479;-80
2023/09/01 13:09:24;;;;;;;6.20;3.20;;;;;;;;;;5063997;28;20474;-80
2023/09/01 13:11:50;;;;;;;6.97;3.00;;;;;;;;;;5061949;28;20480;-80
2023/09/01 13:14:19;;;;;;;3.20;2.73;;;;;;;;;;5044053;28;20467;-81
2023/09/01 13:16:47;;;;;;;4.87;3.53;;;;;;;;;;5061001;28;20482;-80
2023/09/01 13:19:14;;;;;;;7.70;3.23;;;;;;;;;;5047050;28;20479;-80
2023/09/01 13:21:40;;;;;;;5.70;3.40;;;;;;;;;;5059382;28;20467;-80
2023/09/01 13:24:08;;;;;;;7.23;3.60;;;;;;;;;;5053592;28;21462;-80
2023/09/01 13:26:36;;;;;;;3.93;2.80;;;;;;;;;;5059787;28;20868;-80
2023/09/01 13:29:03;;;;;;;5.20;2.80;;;;;;;;;;5055939;28;20456;-80
2023/09/01 13:31:29;;;;;;;8.20;3.67;;;;;;;;;;5046255;28;20864;-80
2023/09/01 13:33:58;;;;;;;6.40;2.67;;;;;;;;;;5055656;28;20999;-81
2023/09/01 13:36:25;;;;;;;3.33;2.80;;;;;;;;;;5061387;28;20458;-81
2023/09/01 13:38:52;;;;;;;6.93;2.70;;;;;;;;;;5048279;28;20880;-81
2023/09/01 13:41:19;;;;;;;10.20;3.20;;;;;;;;;;5057016;28;20471;-80
2023/09/01 13:43:45;;;;;;;5.00;2.90;;;;;;;;;;5061775;28;20529;-81
2023/09/01 13:46:18;;;;;;;4.20;2.80;;;;;;;;;;5062524;28;20577;-81
2023/09/01 13:48:45;;;;;;;4.50;2.87;;;;;;;;;;5039391;28;20474;-81
2023/09/01 13:51:13;;;;;;;5.83;3.53;;;;;;;;;;5061723;28;20475;-80
2023/09/01 13:53:39;;;;;;;5.33;3.60;;;;;;;;;;5051003;28;20494;-81
2023/09/01 13:56:07;;;;;;;9.60;2.80;;;;;;;;;;5049138;28;20468;-80
2023/09/01 13:58:33;;;;;;;5.87;3.40;;;;;;;;;;5056345;28;20485;-80
2023/09/01 14:01:01;;;;;;;7.30;2.93;;;;;;;;;;5055914;28;20472;-80
2023/09/01 14:03:28;;;;;;;7.00;3.20;;;;;;;;;;5058878;28;20463;-81
2023/09/01 14:05:54;;;;;;;5.30;3.20;;;;;;;;;;5055742;28;20509;-81
2023/09/01 14:08:23;;;;;;;7.67;4.33;;;;;;;;;;5065207;28;20987;-81
2023/09/01 14:10:52;;;;;;;4.73;4.20;;;;;;;;;;5038173;28;21039;-80
2023/09/01 14:13:19;;;;;;;5.60;3.43;;;;;;;;;;5054720;28;20488;-80
2023/09/01 14:15:46;;;;;;;5.03;3.40;;;;;;;;;;5064915;28;20467;-80
2023/09/01 14:18:15;;;;;;;5.73;3.30;;;;;;;;;;5053584;28;20479;-81
2023/09/01 14:20:41;;;;;;;6.20;4.13;;;;;;;;;;5070988;28;21029;-80
2023/09/01 14:23:09;;;;;;;8.80;3.43;;;;;;;;;;5033149;28;20494;-81
2023/09/01 14:25:37;;;;;;;6.83;3.70;;;;;;;;;;5057837;28;20470;-81
2023/09/01 14:28:03;;;;;;;5.13;3.03;;;;;;;;;;5053435;28;21016;-80
2023/09/01 14:30:30;;;;;;;6.03;3.40;;;;;;;;;;5063214;28;20994;-80
2023/09/01 14:32:57;;;;;;;3.77;3.40;;;;;;;;;;5056456;28;20518;-81
2023/09/01 14:35:23;;;;;;;3.90;2.40;;;;;;;;;;5063734;28;20845;-80
2023/09/01 14:37:49;;;;;;;6.73;3.60;;;;;;;;;;5061206;28;20550;-81
2023/09/01 14:40:16;;;;;;;6.90;3.07;;;;;;;;;;5047162;28;20472;-80
2023/09/01 14:42:44;;;;;;;4.80;3.30;;;;;;;;;;5052442;28;20551;-81